createdAt,value
2023-03-23T15:59:37.728Z,9.00
2023-03-23T16:02:30.916Z,9.80
2023-03-23T16:05:25.738Z,8.90
2023-03-23T16:21:40.379Z,14.50
2023-03-23T17:17:19.262Z,25.10
2023-03-23T17:23:30.578Z,26.40
2023-03-23T17:26:20.637Z,28.30
2023-03-23T17:29:10.430Z,31.70
2023-03-23T17:32:02.259Z,34.20
2023-03-23T17:34:51.765Z,36.10
2023-03-23T17:37:40.956Z,37.70
2023-03-23T17:40:29.770Z,38.40
2023-03-23T17:43:18.986Z,37.60
2023-03-23T17:46:11.563Z,35.80
2023-03-23T17:49:01.798Z,37.90
2023-03-23T17:51:53.212Z,37.00
2023-03-23T18:03:23.257Z,36.60
2023-03-23T18:06:13.666Z,36.30
2023-03-23T18:09:03.569Z,35.00
2023-03-23T18:11:53.181Z,36.00
2023-03-23T18:14:41.799Z,36.50
2023-03-23T18:17:30.548Z,36.40
2023-03-23T18:20:19.428Z,37.20
2023-03-23T18:23:09.598Z,39.40
2023-03-23T18:25:58.231Z,40.90
2023-03-23T18:28:46.837Z,43.30
2023-03-23T18:31:40.073Z,46.30
2023-03-23T18:34:28.842Z,48.80
2023-03-23T18:37:17.840Z,51.00
2023-03-23T18:40:10.991Z,53.10
2023-03-23T18:43:00.771Z,54.10
2023-03-23T18:45:51.390Z,55.80
2023-03-23T18:48:40.177Z,56.60
2023-03-23T18:51:31.009Z,57.90
2023-03-23T18:54:19.638Z,59.50
2023-03-23T18:57:09.671Z,60.80
2023-03-23T18:59:58.241Z,62.40
2023-03-23T19:02:47.546Z,64.10
2023-03-23T19:05:44.832Z,64.70
2023-03-23T19:08:34.982Z,65.40
2023-03-23T19:11:26.044Z,67.90
2023-03-23T19:14:17.724Z,70.10
2023-03-23T19:17:06.870Z,71.20
2023-03-23T19:19:55.444Z,72.60
2023-03-23T19:22:44.051Z,73.30
2023-03-23T19:25:32.946Z,74.00
2023-03-23T19:29:03.851Z,74.40
2023-03-23T19:31:32.229Z,75.40
2023-03-23T19:34:21.904Z,75.80
2023-03-23T19:37:11.494Z,76.50
2023-03-23T19:40:02.935Z,76.60
2023-03-23T19:42:55.447Z,76.90
2023-03-23T19:45:44.875Z,77.70
2023-03-23T19:48:35.435Z,78.50
2023-03-23T19:51:24.608Z,79.40
2023-03-23T19:54:13.551Z,79.70
2023-03-23T19:57:02.301Z,80.00
2023-03-23T19:59:51.064Z,79.80
2023-03-23T20:02:39.961Z,80.10
2023-03-23T20:05:30.255Z,80.00
2023-03-23T20:08:18.865Z,80.10
2023-03-23T20:11:09.230Z,80.20
2023-03-23T20:13:58.213Z,81.20
2023-03-23T20:16:46.842Z,82.80
2023-03-23T20:19:36.644Z,83.30
2023-03-23T20:22:26.982Z,85.30
2023-03-23T20:25:15.718Z,85.40
2023-03-23T20:28:04.577Z,87.50
2023-03-23T20:31:16.706Z,87.50
2023-03-23T20:34:13.566Z,87.90
2023-03-23T20:37:02.838Z,87.60
2023-03-23T20:39:52.960Z,87.00
2023-03-23T20:42:43.939Z,87.30
2023-03-23T20:45:32.826Z,87.90
2023-03-23T20:48:22.190Z,87.90
2023-03-23T20:51:11.830Z,88.30
2023-03-23T20:54:01.005Z,89.00
2023-03-23T20:56:51.206Z,89.80
2023-03-23T20:59:39.884Z,90.70
2023-03-23T21:02:30.215Z,90.60
2023-03-23T21:05:18.878Z,89.90
2023-03-23T21:08:08.298Z,90.50
2023-03-23T21:10:57.948Z,90.80
2023-03-23T21:13:48.739Z,90.90
2023-03-23T21:16:37.545Z,91.20
2023-03-23T21:19:28.227Z,91.20
2023-03-23T21:22:18.498Z,91.60
2023-03-23T21:25:10.169Z,91.90
2023-03-23T21:27:58.769Z,92.20
2023-03-23T21:30:49.481Z,92.40
2023-03-23T21:33:38.113Z,91.90
2023-03-23T21:36:27.555Z,92.20
2023-03-23T21:39:16.689Z,92.60
2023-03-23T21:42:07.063Z,92.70
2023-03-23T21:44:56.703Z,93.60
2023-03-23T21:47:47.443Z,93.90
2023-03-23T21:50:37.523Z,93.90
2023-03-23T21:53:27.136Z,93.40
2023-03-23T21:56:15.916Z,92.20
2023-03-23T21:59:04.900Z,92.40
2023-03-23T22:01:54.223Z,91.60
2023-03-23T22:04:44.348Z,90.90
2023-03-23T22:07:33.266Z,89.60
2023-03-23T22:10:22.137Z,88.60
2023-03-23T22:13:12.028Z,89.10
2023-03-23T22:16:02.572Z,89.50
2023-03-23T22:18:52.567Z,88.70
2023-03-23T22:21:42.679Z,88.40
2023-03-23T22:24:32.083Z,87.70
2023-03-23T22:27:20.821Z,87.80
2023-03-23T22:30:10.221Z,84.50
2023-03-23T22:32:58.882Z,82.00
2023-03-23T22:35:48.009Z,81.30
2023-03-23T22:38:40.305Z,79.60
2023-03-23T22:41:33.236Z,77.10
2023-03-23T22:44:21.835Z,81.30
2023-03-23T22:47:10.410Z,82.20
2023-03-23T22:49:59.002Z,85.60
2023-03-23T22:52:47.545Z,88.80
2023-03-23T22:55:37.539Z,92.80
2023-03-23T22:58:27.112Z,96.80
2023-03-23T23:01:18.183Z,99.30
2023-03-23T23:04:07.233Z,99.90
2023-03-23T23:07:10.121Z,99.90
2023-03-23T23:10:01.452Z,99.90
2023-03-23T23:12:54.085Z,99.90
2023-03-23T23:15:46.745Z,99.90
2023-03-23T23:18:36.036Z,99.90
2023-03-23T23:21:27.184Z,99.90
2023-03-23T23:24:16.090Z,99.90
2023-03-23T23:27:04.959Z,99.90
2023-03-23T23:29:55.011Z,99.90
2023-03-23T23:32:44.758Z,99.90
2023-03-23T23:35:34.820Z,99.90
2023-03-23T23:38:23.382Z,99.90
2023-03-23T23:41:12.000Z,99.90
2023-03-23T23:44:00.834Z,99.90
2023-03-23T23:46:50.841Z,99.90
2023-03-23T23:49:40.364Z,99.90
2023-03-23T23:52:29.013Z,99.90
2023-03-23T23:55:18.655Z,99.90
2023-03-23T23:58:07.252Z,99.90
